Terminal Aerodrome Forecast
Issued by NWS Twin Cities, MN

Home | Current Version | Previous Version | Graphics & Text | Print | Product List | Glossary On
Versions: 1 2 3 4 5 6 7 8 9 10 11 12 13 14 15 16 17 18
000
FTUS43 KMPX 260850 AAA
TAFSTC
TAF AMD
KSTC 260850Z 2609/2706 19008KT P6SM BKN015 BKN100
      TEMPO 2613/2616 SCT015 OVC100
     FM261600 30011G18KT P6SM OVC020
     FM270000 33007KT P6SM OVC020=

USA.gov is the U.S. government's official web portal to all federal, state and local government web resources and services.